Time;durP1;ratioP1;P1;durP2;ratioP2;P2;SDS_P1;SDS_P2;PMS_P1;PMS_P2;Temp;Humidity;BMP_temperature;BMP_pressure;BME280_temperature;BME280_humidity;BME280_pressure;Samples;Min_cycle;Max_cycle;Signal;HPM_P1;HPM_P2
2024/01/15 00:02:16;;;;;;;177.70;67.65;;;;;;;-4.03;74.83;94534.06;5059783;28;20028;-87
2024/01/15 00:04:42;;;;;;;175.73;68.13;;;;;;;-3.17;75.01;94656.63;5060433;28;20029;-87
2024/01/15 00:07:08;;;;;;;187.27;70.88;;;;;;;-4.08;75.10;94498.41;5070193;28;20120;-87
2024/01/15 00:09:34;;;;;;;200.20;68.43;;;;;;;-2.99;74.83;94677.56;5068260;28;20036;-87
2024/01/15 00:12:00;;;;;;;197.68;70.55;;;;;;;-3.34;74.38;94612.16;5058441;28;20076;-87
2024/01/15 00:14:26;;;;;;;203.65;73.65;;;;;;;-3.63;75.09;94584.06;5072482;28;20071;-87
2024/01/15 00:16:54;;;;;;;222.40;81.38;;;;;;;-4.71;75.45;94435.06;5077819;28;20028;-87
2024/01/15 00:19:22;;;;;;;211.80;78.15;;;;;;;-6.02;75.83;94241.81;5061757;28;20150;-87
2024/01/15 00:21:47;;;;;;;209.32;76.60;;;;;;;-3.95;75.27;94546.81;5072878;28;20049;-87
2024/01/15 00:24:13;;;;;;;202.70;75.32;;;;;;;-4.20;76.03;94512.97;5057200;28;20094;-87
2024/01/15 00:26:39;;;;;;;215.77;75.70;;;;;;;-3.62;75.37;94607.22;5059033;28;20039;-87
2024/01/15 00:29:07;;;;;;;197.45;72.05;;;;;;;-3.09;76.01;94669.38;5077961;28;20033;-87
2024/01/15 00:31:33;;;;;;;197.52;71.60;;;;;;;-3.05;75.64;94678.34;5071890;28;20150;-87
2024/01/15 00:33:58;;;;;;;197.93;71.38;;;;;;;-3.61;75.40;94614.00;5064188;28;20051;-87
2024/01/15 00:36:24;;;;;;;193.07;69.97;;;;;;;-3.27;75.44;94662.22;5068277;28;20064;-86
2024/01/15 00:38:50;;;;;;;185.95;68.40;;;;;;;-3.34;75.58;94645.88;5064158;28;20036;-87
2024/01/15 00:41:15;;;;;;;193.05;71.75;;;;;;;-5.10;74.96;94376.31;5071482;28;20358;-87
2024/01/15 00:43:41;;;;;;;195.05;73.00;;;;;;;-3.56;74.90;94618.56;5069554;28;20048;-87
2024/01/15 00:46:07;;;;;;;198.77;75.78;;;;;;;-3.80;75.04;94567.34;5057836;28;20045;-87
2024/01/15 00:48:32;;;;;;;199.52;72.25;;;;;;;-3.07;75.15;94674.38;5053197;28;20115;-83
2024/01/15 00:50:58;;;;;;;201.45;76.32;;;;;;;-3.34;75.31;94674.38;5068013;28;20040;-83
2024/01/15 00:53:25;;;;;;;195.77;74.47;;;;;;;-3.71;75.33;94605.00;5061476;28;20044;-83
2024/01/15 00:55:51;;;;;;;196.63;69.78;;;;;;;-3.66;75.59;94618.94;5073799;28;20032;-82
2024/01/15 00:58:16;;;;;;;198.68;73.03;;;;;;;-4.61;75.25;94470.91;5058561;28;20040;-83
2024/01/15 01:00:42;;;;;;;214.45;75.15;;;;;;;-4.82;75.27;94449.41;5056941;28;20049;-83
2024/01/15 01:03:08;;;;;;;197.45;74.32;;;;;;;-4.38;75.19;94503.19;5057157;28;20052;-83
2024/01/15 01:05:34;;;;;;;210.77;74.97;;;;;;;-4.48;75.57;94496.78;5062643;28;20103;-84
2024/01/15 01:08:01;;;;;;;214.52;76.75;;;;;;;-4.23;75.90;94535.84;5077366;28;20631;-83
2024/01/15 01:10:27;;;;;;;212.45;78.03;;;;;;;-4.13;75.46;94542.25;5072379;28;20041;-83
2024/01/15 01:12:52;;;;;;;211.77;76.70;;;;;;;-3.37;75.73;94672.22;5056348;28;20512;-82
2024/01/15 01:15:18;;;;;;;203.88;74.68;;;;;;;-3.71;75.75;94605.00;5069125;28;20063;-83
2024/01/15 01:17:43;;;;;;;209.65;76.65;;;;;;;-4.43;75.05;94494.44;5078772;28;20028;-83
2024/01/15 01:20:10;;;;;;;224.77;79.38;;;;;;;-3.38;76.10;94665.44;5080581;28;20032;-83
2024/01/15 01:22:36;;;;;;;229.15;81.20;;;;;;;-3.43;76.27;94659.25;5096165;28;20505;-83
2024/01/15 01:25:02;;;;;;;215.57;84.10;;;;;;;-3.39;76.03;94658.66;5065210;28;20033;-83
2024/01/15 01:27:28;;;;;;;220.93;82.22;;;;;;;-4.62;75.78;94464.13;5075578;28;20519;-83
2024/01/15 01:29:54;;;;;;;215.32;80.63;;;;;;;-3.45;76.07;94632.72;5062228;28;20024;-83
2024/01/15 01:32:19;;;;;;;231.05;86.28;;;;;;;-3.80;75.72;94590.66;5076893;28;20126;-82
2024/01/15 01:34:45;;;;;;;238.38;91.18;;;;;;;-4.15;75.89;94536.47;5060429;28;20030;-82
2024/01/15 01:37:14;;;;;;;220.43;86.55;;;;;;;-5.43;75.71;94347.06;5097645;28;20028;-84
2024/01/15 01:39:41;;;;;;;215.75;84.68;;;;;;;-3.34;75.57;94652.84;5075539;28;20032;-83
2024/01/15 01:42:07;;;;;;;228.68;83.40;;;;;;;-3.44;76.32;94648.09;5082417;28;20122;-84
2024/01/15 01:44:32;;;;;;;255.32;90.15;;;;;;;-3.85;76.53;94593.06;5072657;28;20129;-83
2024/01/15 01:47:00;;;;;;;221.90;83.35;;;;;;;-4.25;76.33;94524.88;5066971;28;20024;-83
2024/01/15 01:49:29;;;;;;;226.60;85.22;;;;;;;-3.57;75.68;94648.06;5069352;28;20039;-83
2024/01/15 01:51:57;;;;;;;253.20;90.53;;;;;;;-5.15;76.23;94394.22;5077143;28;20028;-86
2024/01/15 01:54:25;;;;;;;243.35;90.22;;;;;;;-3.81;76.81;94607.22;5088720;28;20043;-87
2024/01/15 01:56:51;;;;;;;220.40;88.60;;;;;;;-4.19;76.59;94549.97;5067382;28;20096;-85
2024/01/15 01:59:17;;;;;;;238.13;89.88;;;;;;;-4.59;76.41;94479.28;5070524;28;20067;-88
2024/01/15 02:01:44;;;;;;;228.57;87.50;;;;;;;-4.64;76.13;94468.69;5086552;28;20039;-87
2024/01/15 02:04:11;;;;;;;237.18;86.00;;;;;;;-4.77;76.35;94453.97;5090117;28;20036;-87
2024/01/15 02:06:36;;;;;;;230.38;85.57;;;;;;;-4.91;76.70;94431.66;5089360;28;20032;-88
2024/01/15 02:09:03;;;;;;;238.95;85.30;;;;;;;-3.78;77.18;94612.78;5087085;28;20061;-87
2024/01/15 02:11:29;;;;;;;219.93;81.40;;;;;;;-3.76;76.72;94597.03;5070903;28;20057;-87
2024/01/15 02:13:55;;;;;;;210.43;79.35;;;;;;;-4.71;76.79;94438.44;5081552;28;20061;-87
2024/01/15 02:16:20;;;;;;;208.23;77.90;;;;;;;-3.73;77.15;94612.97;5070667;28;20436;-87
2024/01/15 02:18:46;;;;;;;199.25;74.28;;;;;;;-4.61;77.11;94482.06;5081167;28;20024;-87
2024/01/15 02:21:12;;;;;;;180.20;66.63;;;;;;;-5.38;77.15;94358.38;5065973;28;20029;-87
2024/01/15 02:23:38;;;;;;;161.57;65.53;;;;;;;-4.63;76.66;94452.19;5075967;28;20082;-87
2024/01/15 02:26:05;;;;;;;156.93;61.67;;;;;;;-3.78;76.88;94560.97;5079990;28;20024;-87
2024/01/15 02:28:32;;;;;;;138.35;58.15;;;;;;;-4.08;77.20;94542.44;5092232;28;20044;-87
2024/01/15 02:30:58;;;;;;;157.23;58.35;;;;;;;-4.06;76.95;94517.16;5080403;28;20032;-87
2024/01/15 02:33:23;;;;;;;148.13;55.42;;;;;;;-3.67;76.43;94562.16;5071042;28;20037;-87
2024/01/15 02:35:50;;;;;;;168.68;58.58;;;;;;;-3.95;76.73;94521.72;5083506;28;20493;-88
2024/01/15 02:38:16;;;;;;;157.90;58.80;;;;;;;-3.67;76.88;94562.16;5071461;28;20519;-88
2024/01/15 02:40:44;;;;;;;153.45;54.33;;;;;;;-4.86;76.84;94391.28;5067847;28;20029;-87
2024/01/15 02:43:10;;;;;;;132.80;49.78;;;;;;;-3.77;77.43;94570.34;5069048;28;20028;-87
2024/01/15 02:45:35;;;;;;;143.30;48.55;;;;;;;-4.24;77.21;94505.78;5069776;28;20028;-87
2024/01/15 02:48:01;;;;;;;128.40;49.55;;;;;;;-4.46;77.44;94440.47;5080279;28;20037;-87
2024/01/15 02:50:26;;;;;;;139.20;49.13;;;;;;;-4.12;77.19;94470.53;5072133;28;20020;-87
2024/01/15 02:52:52;;;;;;;161.05;54.53;;;;;;;-3.90;77.45;94506.38;5086688;28;20515;-88
2024/01/15 02:55:18;;;;;;;154.05;54.30;;;;;;;-3.83;76.90;94526.28;5079131;28;20032;-86
2024/01/15 02:57:44;;;;;;;188.10;64.70;;;;;;;-4.10;76.24;94456.38;5071566;28;20032;-87
2024/01/15 03:00:09;;;;;;;148.45;53.47;;;;;;;-4.55;76.08;94395.88;5083706;28;20085;-87
2024/01/15 03:02:39;;;;;;;140.85;52.25;;;;;;;-4.11;76.35;94457.38;5082132;28;20080;-88
2024/01/15 03:05:06;;;;;;;151.95;56.08;;;;;;;-3.70;76.16;94508.13;5065379;28;20052;-87
2024/01/15 03:07:32;;;;;;;146.48;49.83;;;;;;;-3.81;75.88;94498.41;5067287;28;20048;-87
2024/01/15 03:09:57;;;;;;;132.77;50.35;;;;;;;-4.26;75.72;94412.75;5074827;28;20533;-87
2024/01/15 03:12:23;;;;;;;136.05;48.70;;;;;;;-3.42;75.72;94562.31;5060472;28;20477;-87
2024/01/15 03:14:48;;;;;;;131.65;49.47;;;;;;;-3.89;75.85;94469.09;5078112;28;20056;-87
2024/01/15 03:17:14;;;;;;;131.07;47.13;;;;;;;-4.81;75.36;94313.09;5063709;28;20036;-87
2024/01/15 03:19:39;;;;;;;163.52;59.25;;;;;;;-5.18;75.12;94249.84;5081068;28;20126;-87
2024/01/15 03:22:07;;;;;;;164.45;61.47;;;;;;;-3.97;75.53;94432.28;5081619;28;20035;-87
2024/01/15 03:24:33;;;;;;;182.50;64.38;;;;;;;-4.29;75.12;94397.66;5076409;28;20067;-87
2024/01/15 03:26:58;;;;;;;172.15;61.33;;;;;;;-3.96;74.90;94455.34;5086237;28;20032;-88
2024/01/15 03:29:25;;;;;;;168.80;61.75;;;;;;;-3.37;75.17;94523.63;5094804;28;20061;-87
2024/01/15 03:31:51;;;;;;;173.88;66.13;;;;;;;-3.46;74.59;94522.25;5095534;28;20039;-87
2024/01/15 03:34:17;;;;;;;182.32;61.45;;;;;;;-3.75;75.20;94479.44;5069239;28;20047;-87
2024/01/15 03:36:43;;;;;;;152.70;55.22;;;;;;;-3.38;75.05;94514.25;5078071;28;20059;-87
2024/01/15 03:39:08;;;;;;;144.05;54.67;;;;;;;-3.30;75.02;94537.38;5060732;28;20028;-87
2024/01/15 03:41:34;;;;;;;131.73;46.38;;;;;;;-4.08;75.28;94400.00;5076095;28;20040;-87
2024/01/15 03:43:59;;;;;;;118.53;41.58;;;;;;;-3.18;75.54;94536.53;5082646;28;20496;-87
2024/01/15 03:46:25;;;;;;;99.35;37.90;;;;;;;-4.05;75.17;94402.19;5078499;28;20552;-87
2024/01/15 03:48:50;;;;;;;95.43;35.67;;;;;;;-4.25;74.80;94364.38;5079069;28;20086;-87
2024/01/15 03:51:19;;;;;;;76.18;30.05;;;;;;;-3.77;74.89;94434.81;5061217;28;20032;-87
2024/01/15 03:53:45;;;;;;;90.70;33.80;;;;;;;-3.42;74.44;94500.09;5062976;28;20032;-87
2024/01/15 03:56:11;;;;;;;88.60;32.47;;;;;;;-4.00;74.54;94389.44;5080028;28;20093;-87
2024/01/15 03:58:36;;;;;;;92.18;34.25;;;;;;;-3.86;74.78;94408.31;5079334;28;20389;-87
2024/01/15 04:01:02;;;;;;;108.75;40.38;;;;;;;-3.17;74.56;94514.78;5074988;28;20024;-87
2024/01/15 04:03:28;;;;;;;131.82;44.65;;;;;;;-3.73;74.50;94433.38;5060196;28;20096;-87
2024/01/15 04:05:53;;;;;;;134.82;48.78;;;;;;;-4.31;74.25;94368.56;5060723;28;20115;-87
2024/01/15 04:08:19;;;;;;;130.38;45.38;;;;;;;-3.28;74.62;94520.59;5060261;28;20397;-87
2024/01/15 04:10:44;;;;;;;107.13;40.67;;;;;;;-3.39;74.28;94469.38;5077982;28;20039;-87
2024/01/15 04:13:10;;;;;;;115.35;40.28;;;;;;;-3.95;73.76;94387.00;5084099;28;20036;-87
2024/01/15 04:15:36;;;;;;;117.35;43.38;;;;;;;-3.12;73.76;94517.53;5086309;28;20099;-87
2024/01/15 04:18:02;;;;;;;112.05;41.20;;;;;;;-3.14;74.07;94516.19;5062020;28;20029;-83
2024/01/15 04:20:28;;;;;;;104.97;38.63;;;;;;;-3.64;74.45;94466.66;5074841;28;20032;-84
2024/01/15 04:22:54;;;;;;;96.50;33.72;;;;;;;-3.59;73.82;94463.47;5057208;28;20038;-84
2024/01/15 04:25:19;;;;;;;93.35;34.15;;;;;;;-3.97;73.29;94401.97;5056737;28;20032;-82
2024/01/15 04:27:45;;;;;;;101.80;38.03;;;;;;;-4.04;73.20;94390.00;5074274;28;20385;-82
2024/01/15 04:30:10;;;;;;;95.93;36.72;;;;;;;-3.98;73.44;94399.59;5060908;28;20020;-84
2024/01/15 04:32:36;;;;;;;104.35;39.00;;;;;;;-3.74;73.49;94418.88;5090529;28;20403;-82
2024/01/15 04:35:02;;;;;;;106.85;39.22;;;;;;;-3.70;73.81;94453.72;5094118;28;20483;-83
2024/01/15 04:37:27;;;;;;;110.82;40.83;;;;;;;-3.54;73.22;94461.06;5079469;28;20028;-87
2024/01/15 04:39:54;;;;;;;116.32;41.20;;;;;;;-3.35;73.39;94500.88;5072306;28;20028;-87
2024/01/15 04:42:21;;;;;;;108.78;38.33;;;;;;;-3.89;73.84;94435.41;5069690;28;20032;-87
2024/01/15 04:44:47;;;;;;;104.07;38.85;;;;;;;-3.38;73.75;94504.69;5080547;28;20095;-87
2024/01/15 04:47:12;;;;;;;105.13;39.92;;;;;;;-4.30;73.61;94346.88;5099246;28;20032;-87
2024/01/15 04:49:38;;;;;;;108.38;39.28;;;;;;;-3.28;73.88;94507.63;5085290;28;20042;-87
2024/01/15 04:52:04;;;;;;;119.50;40.53;;;;;;;-4.65;74.02;94296.38;5075017;28;20028;-87
2024/01/15 04:54:29;;;;;;;102.30;40.20;;;;;;;-3.80;74.07;94461.91;5067227;28;20032;-87
2024/01/15 04:56:55;;;;;;;112.88;41.28;;;;;;;-4.17;74.96;94427.09;5070513;28;20020;-87
2024/01/15 04:59:20;;;;;;;117.70;42.40;;;;;;;-3.49;75.05;94502.69;5066462;28;20055;-87
2024/01/15 05:01:47;;;;;;;113.32;40.67;;;;;;;-4.43;75.38;94328.78;5079558;28;20067;-87
2024/01/15 05:04:12;;;;;;;126.32;40.55;;;;;;;-3.37;74.96;94497.69;5083740;28;20032;-87
2024/01/15 05:06:38;;;;;;;96.53;38.53;;;;;;;-4.82;75.48;94296.00;5066563;28;20058;-87
2024/01/15 05:09:04;;;;;;;116.15;41.50;;;;;;;-4.00;75.63;94409.34;5062273;28;20025;-87
2024/01/15 05:11:29;;;;;;;111.90;40.72;;;;;;;-4.36;75.46;94358.03;5067356;28;20025;-87
2024/01/15 05:13:55;;;;;;;109.72;43.55;;;;;;;-3.57;75.95;94462.25;5060503;28;20052;-86
2024/01/15 05:16:21;;;;;;;111.07;42.60;;;;;;;-5.14;75.54;94202.72;5063663;28;20037;-84
2024/01/15 05:18:47;;;;;;;114.53;41.90;;;;;;;-4.16;74.69;94332.09;5072579;28;20566;-86
2024/01/15 05:21:12;;;;;;;101.50;39.58;;;;;;;-4.85;75.41;94226.56;5061841;28;20033;-87
2024/01/15 05:23:38;;;;;;;117.50;42.50;;;;;;;-5.06;75.12;94207.69;5065577;28;20021;-86
2024/01/15 05:26:04;;;;;;;104.95;40.58;;;;;;;-4.05;75.46;94365.16;5068652;28;20064;-87
2024/01/15 05:28:30;;;;;;;90.07;38.42;;;;;;;-7.63;75.22;93801.09;5037469;28;20033;-84
2024/01/15 05:30:55;;;;;;;92.68;38.50;;;;;;;-4.13;75.00;94379.09;5054598;28;20060;-84
2024/01/15 05:33:24;;;;;;;100.53;37.15;;;;;;;-4.85;75.05;94275.69;5048916;28;20097;-84
2024/01/15 05:35:50;;;;;;;90.47;36.53;;;;;;;-4.32;75.49;94364.38;5078755;28;20036;-84
2024/01/15 05:38:16;;;;;;;110.78;36.67;;;;;;;-4.34;75.35;94332.72;5067758;28;20032;-84
2024/01/15 05:40:42;;;;;;;83.85;34.90;;;;;;;-4.05;75.51;94380.69;5059251;28;20123;-82
2024/01/15 05:43:07;;;;;;;101.43;34.28;;;;;;;-4.16;74.78;94351.03;5057015;28;20100;-86
2024/01/15 05:45:35;;;;;;;92.22;35.28;;;;;;;-3.95;74.18;94381.84;5073045;28;20201;-86
2024/01/15 05:48:01;;;;;;;90.38;32.90;;;;;;;-5.48;74.12;94141.72;5052644;28;20048;-87
2024/01/15 05:50:26;;;;;;;94.07;35.53;;;;;;;-4.21;74.36;94376.72;5054487;28;20029;-84
2024/01/15 05:52:52;;;;;;;95.55;35.40;;;;;;;-4.08;74.48;94376.69;5047322;28;20371;-85
2024/01/15 05:55:18;;;;;;;93.60;36.28;;;;;;;-5.34;74.35;94172.75;5062076;28;20037;-84
2024/01/15 05:57:45;;;;;;;89.45;35.92;;;;;;;-3.95;74.24;94381.84;5061672;28;20016;-84
2024/01/15 06:00:11;;;;;;;96.88;37.58;;;;;;;-3.77;74.84;94399.34;5066510;28;20033;-83
2024/01/15 06:02:40;;;;;;;104.85;37.05;;;;;;;-4.40;74.09;94305.06;5063247;28;20242;-84
2024/01/15 06:05:07;;;;;;;94.10;35.70;;;;;;;-4.25;73.96;94366.97;5058582;28;20041;-87
2024/01/15 06:07:35;;;;;;;100.43;37.55;;;;;;;-3.57;75.01;94477.00;5065618;28;20033;-86
2024/01/15 06:10:05;;;;;;;101.40;38.50;;;;;;;-3.85;74.61;94440.19;5072484;28;20016;-86
2024/01/15 06:12:32;;;;;;;73.80;29.27;;;;;;;-5.55;74.75;94159.03;5059026;28;20049;-84
2024/01/15 06:15:00;;;;;;;110.57;40.80;;;;;;;-3.54;74.94;94481.78;5045805;28;20618;-85
2024/01/15 06:17:26;;;;;;;113.72;39.55;;;;;;;-5.01;74.80;94238.09;5045623;28;20040;-87
2024/01/15 06:19:51;;;;;;;103.57;38.80;;;;;;;-7.60;75.49;93883.88;5070935;28;20037;-84
2024/01/15 06:22:20;;;;;;;107.43;39.13;;;;;;;-4.23;75.78;94368.38;5019484;28;20773;-82
2024/01/15 06:24:46;;;;;;;107.93;42.50;;;;;;;-3.90;76.57;94407.94;5023170;28;20036;-87
2024/01/15 06:27:11;;;;;;;114.85;42.80;;;;;;;-3.41;76.01;94463.59;5031507;28;20481;-87
2024/01/15 06:29:38;;;;;;;110.45;41.30;;;;;;;-3.54;75.76;94430.75;5067276;28;20033;-84
2024/01/15 06:32:04;;;;;;;100.40;40.90;;;;;;;-3.64;76.08;94399.28;5055031;28;20041;-87
2024/01/15 06:34:30;;;;;;;108.47;41.00;;;;;;;-3.31;75.63;94451.00;5075564;28;20555;-86
2024/01/15 06:36:55;;;;;;;107.32;40.65;;;;;;;-3.17;75.71;94465.50;5067875;28;20512;-85
2024/01/15 06:39:21;;;;;;;114.63;42.58;;;;;;;-3.50;75.39;94412.97;5039813;28;20036;-85
2024/01/15 06:41:47;;;;;;;115.80;42.83;;;;;;;-3.47;75.59;94404.81;5040018;28;21050;-83
2024/01/15 06:44:13;;;;;;;104.70;42.03;;;;;;;-3.39;75.33;94404.56;5031846;28;22388;-86
2024/01/15 06:46:45;;;;;;;110.63;42.33;;;;;;;-3.16;75.48;94448.94;5058472;28;20021;-83
2024/01/15 06:49:11;;;;;;;115.32;42.63;;;;;;;-4.65;75.27;94182.53;5060860;28;20037;-84
2024/01/15 06:51:38;;;;;;;110.65;44.83;;;;;;;-3.56;75.37;94341.22;5045834;28;20401;-84
2024/01/15 06:54:03;;;;;;;115.80;47.58;;;;;;;-4.61;75.00;94176.75;5049227;28;20040;-84
2024/01/15 06:56:29;;;;;;;125.00;48.78;;;;;;;-4.58;75.09;94160.81;5066438;28;20036;-86
2024/01/15 06:58:54;;;;;;;115.35;45.60;;;;;;;-3.50;74.94;94343.00;5054691;28;21038;-84
2024/01/15 07:01:20;;;;;;;116.25;46.65;;;;;;;-4.72;74.95;94162.66;5053378;28;20032;-86
2024/01/15 07:03:46;;;;;;;130.98;48.35;;;;;;;-2.63;75.05;94466.03;5045361;28;20039;-85
2024/01/15 07:06:11;;;;;;;119.50;47.60;;;;;;;-2.77;75.19;94437.56;5055823;28;20071;-84
2024/01/15 07:08:43;;;;;;;130.40;47.90;;;;;;;-2.49;75.01;94457.94;5074209;28;20099;-85
2024/01/15 07:11:09;;;;;;;121.75;48.10;;;;;;;-3.55;74.61;94278.81;5044542;28;20132;-85
2024/01/15 07:13:37;;;;;;;125.72;47.97;;;;;;;-2.85;74.53;94364.34;5055307;28;20501;-86
2024/01/15 07:16:03;;;;;;;129.27;48.20;;;;;;;-3.56;74.33;94251.31;5074314;28;20567;-84
2024/01/15 07:18:34;;;;;;;117.82;49.15;;;;;;;-2.27;74.02;94450.59;5067060;28;20121;-83
2024/01/15 07:21:01;;;;;;;135.98;51.67;;;;;;;-3.07;73.79;94353.53;5071408;28;20032;-84
2024/01/15 07:23:27;;;;;;;127.82;50.03;;;;;;;-2.28;74.83;94492.34;5079205;28;20119;-84
2024/01/15 07:25:53;;;;;;;155.70;58.30;;;;;;;-2.85;75.76;94403.28;5062624;28;20062;-85
2024/01/15 07:28:19;;;;;;;163.10;57.92;;;;;;;-2.23;75.59;94458.75;5067377;28;20066;-83
2024/01/15 07:30:45;;;;;;;142.13;56.92;;;;;;;-3.92;75.22;94205.31;5066026;28;20029;-84
2024/01/15 07:33:10;;;;;;;143.20;59.95;;;;;;;-2.10;74.88;94458.66;5064726;28;20126;-84
2024/01/15 07:35:36;;;;;;;148.35;59.60;;;;;;;-4.31;75.37;94107.94;5066151;28;20028;-84
2024/01/15 07:38:02;;;;;;;152.85;57.85;;;;;;;-4.34;74.96;94092.00;5078987;28;20032;-87
2024/01/15 07:40:28;;;;;;;149.50;57.80;;;;;;;-3.95;74.46;94133.19;5083333;28;20250;-86
2024/01/15 07:42:53;;;;;;;146.45;55.92;;;;;;;-2.30;74.47;94398.28;5085061;28;20064;-87
2024/01/15 07:45:19;;;;;;;152.55;55.47;;;;;;;-3.41;74.21;94222.50;5069877;28;20036;-88
2024/01/15 07:47:44;;;;;;;131.20;54.35;;;;;;;-2.30;73.95;94383.50;5078474;28;20147;-87
2024/01/15 07:50:10;;;;;;;142.68;56.67;;;;;;;-1.94;74.33;94421.72;5082667;28;20032;-87
2024/01/15 07:52:36;;;;;;;126.93;49.53;;;;;;;-1.49;74.05;94483.88;5079524;28;20042;-86
2024/01/15 07:55:03;;;;;;;134.45;50.97;;;;;;;-1.74;73.59;94424.91;5073314;28;20040;-87
2024/01/15 07:57:29;;;;;;;142.10;57.30;;;;;;;-1.49;74.07;94487.28;5083218;28;20032;-85
2024/01/15 07:59:55;;;;;;;158.20;64.03;;;;;;;-1.38;74.00;94489.16;5079631;28;20134;-85
2024/01/15 08:02:21;;;;;;;171.05;64.53;;;;;;;-1.32;73.86;94464.88;5062090;28;20064;-86
2024/01/15 08:04:47;;;;;;;159.23;64.03;;;;;;;-2.46;73.43;94244.63;5062951;28;20040;-87
2024/01/15 08:07:13;;;;;;;147.52;57.85;;;;;;;-1.81;73.74;94358.41;5080425;28;20070;-87
2024/01/15 08:09:38;;;;;;;138.27;60.67;;;;;;;-1.91;74.14;94351.16;5060884;28;20452;-85
2024/01/15 08:12:06;;;;;;;175.05;73.40;;;;;;;-2.17;74.29;94328.03;5045267;28;20040;-86
2024/01/15 08:14:32;;;;;;;177.40;73.32;;;;;;;-1.57;73.94;94399.16;5055248;28;20136;-86
2024/01/15 08:16:58;;;;;;;204.43;80.63;;;;;;;-1.43;73.71;94412.78;5038353;28;20238;-86
2024/01/15 08:19:23;;;;;;;217.88;87.93;;;;;;;-1.24;73.70;94443.00;5045127;28;20041;-85
2024/01/15 08:21:49;;;;;;;222.70;86.65;;;;;;;-1.39;73.14;94406.94;5052712;28;20921;-86
2024/01/15 08:24:14;;;;;;;252.60;95.15;;;;;;;-1.07;72.52;94449.19;5049076;28;20041;-85
2024/01/15 08:26:40;;;;;;;272.85;103.78;;;;;;;-1.69;72.14;94380.09;5045608;28;20185;-85
2024/01/15 08:29:06;;;;;;;258.67;103.00;;;;;;;-1.02;71.83;94474.56;5053065;28;20109;-86
2024/01/15 08:31:31;;;;;;;223.85;92.70;;;;;;;-1.25;72.18;94452.59;5056101;28;20092;-87
2024/01/15 08:33:57;;;;;;;228.68;87.57;;;;;;;-3.04;72.17;94158.56;5059314;28;20043;-86
2024/01/15 08:36:24;;;;;;;230.77;88.78;;;;;;;-1.51;72.29;94359.25;5052341;28;20024;-85
2024/01/15 08:38:50;;;;;;;207.70;84.85;;;;;;;-1.53;71.84;94334.50;5058207;28;20029;-85
2024/01/15 08:41:15;;;;;;;212.90;85.22;;;;;;;-1.75;71.29;94287.34;5052513;28;20044;-87
2024/01/15 08:43:41;;;;;;;188.13;77.70;;;;;;;-1.41;71.03;94327.53;5049929;28;20044;-85
2024/01/15 08:46:07;;;;;;;219.85;90.15;;;;;;;-1.21;71.19;94354.06;5053236;28;20052;-86
2024/01/15 08:48:32;;;;;;;249.30;97.30;;;;;;;-1.76;71.06;94278.00;5054295;28;20059;-85
2024/01/15 08:50:58;;;;;;;254.68;101.40;;;;;;;-2.46;71.61;94152.97;5048547;28;20086;-84
2024/01/15 08:53:24;;;;;;;248.30;99.63;;;;;;;-3.75;71.26;93951.72;5041588;28;20040;-85
2024/01/15 08:55:49;;;;;;;248.07;100.55;;;;;;;-0.86;71.64;94399.25;5048822;28;20151;-87
2024/01/15 08:58:16;;;;;;;225.50;94.25;;;;;;;-3.01;71.27;94044.00;5049157;28;20888;-84
2024/01/15 09:00:42;;;;;;;227.90;91.70;;;;;;;-3.94;69.73;93895.72;5052073;28;20039;-84
2024/01/15 09:03:10;;;;;;;191.60;83.10;;;;;;;-2.02;69.98;94169.97;5048804;28;20025;-85
2024/01/15 09:05:36;;;;;;;219.82;85.22;;;;;;;-1.04;69.51;94303.00;5055527;28;20421;-84
2024/01/15 09:08:02;;;;;;;200.55;82.40;;;;;;;-1.32;69.40;94228.19;5057791;28;20029;-83
2024/01/15 09:10:27;;;;;;;187.20;79.85;;;;;;;-1.00;68.90;94296.34;5059700;28;20029;-84
2024/01/15 09:12:53;;;;;;;180.55;71.78;;;;;;;-0.97;69.08;94288.09;5062372;28;20093;-84
2024/01/15 09:15:19;;;;;;;185.52;74.47;;;;;;;-0.52;69.10;94317.00;5067090;28;20063;-83
2024/01/15 09:17:46;;;;;;;178.57;73.00;;;;;;;0.00;68.69;94356.97;5046969;28;20169;-83
2024/01/15 09:20:11;;;;;;;167.55;73.15;;;;;;;0.12;68.52;94358.81;5050329;28;20086;-84
2024/01/15 09:22:42;;;;;;;161.98;71.20;;;;;;;-0.33;67.83;94257.78;5065252;28;20056;-83
2024/01/15 09:25:11;;;;;;;149.75;55.20;;;;;;;0.22;67.81;94353.81;5054693;28;20036;-84
2024/01/15 09:27:37;;;;;;;101.82;43.35;;;;;;;0.06;67.21;94351.91;5046877;28;20078;-84
2024/01/15 09:30:04;;;;;;;120.47;47.65;;;;;;;-1.81;67.26;94069.94;5047917;28;20080;-84
2024/01/15 09:32:30;;;;;;;126.30;47.58;;;;;;;-1.06;68.10;94176.72;5046122;28;20100;-84
2024/01/15 09:34:56;;;;;;;118.40;46.85;;;;;;;-2.11;67.66;94046.59;5048147;28;20143;-84
2024/01/15 09:37:21;;;;;;;115.72;46.47;;;;;;;-0.29;68.55;94334.44;5066285;28;20410;-82
2024/01/15 09:39:48;;;;;;;115.75;44.13;;;;;;;-0.72;67.92;94261.84;5062634;28;20040;-83
2024/01/15 09:42:15;;;;;;;114.35;45.75;;;;;;;-1.37;68.41;94141.41;5061196;28;20029;-83
2024/01/15 09:44:41;;;;;;;115.75;46.90;;;;;;;-0.29;68.21;94311.00;5036232;28;20493;-86
2024/01/15 09:47:07;;;;;;;132.77;49.60;;;;;;;-0.54;68.43;94251.34;5045959;28;20041;-83
2024/01/15 09:49:33;;;;;;;134.75;51.97;;;;;;;-0.75;68.09;94209.44;5036920;28;20440;-84
2024/01/15 09:52:01;;;;;;;161.10;54.35;;;;;;;-1.41;68.95;94119.50;5060155;28;20032;-84
2024/01/15 09:54:27;;;;;;;132.60;53.83;;;;;;;-0.28;68.94;94290.94;5071973;28;20521;-83
2024/01/15 09:56:54;;;;;;;132.23;51.95;;;;;;;-1.17;68.84;94160.09;5044484;28;20108;-83
2024/01/15 09:59:22;;;;;;;129.13;51.60;;;;;;;-1.37;68.47;94084.19;5065099;28;20025;-83
2024/01/15 10:01:50;;;;;;;144.43;50.90;;;;;;;-0.17;68.34;94269.31;5046559;28;20218;-83
2024/01/15 10:04:16;;;;;;;129.35;48.83;;;;;;;0.02;68.33;94277.75;5045471;28;20428;-83
2024/01/15 10:06:46;;;;;;;122.50;46.78;;;;;;;0.07;68.02;94296.13;5028376;28;20050;-83
2024/01/15 10:09:14;;;;;;;118.20;50.50;;;;;;;-0.50;68.94;94249.84;5069020;28;20041;-83
2024/01/15 10:11:42;;;;;;;129.00;53.40;;;;;;;-0.43;70.75;94289.59;5043493;28;20043;-85
2024/01/15 10:14:14;;;;;;;122.57;51.65;;;;;;;-0.50;70.35;94236.84;5053690;28;20075;-85
2024/01/15 10:16:40;;;;;;;145.50;53.17;;;;;;;-0.61;70.12;94206.38;5053743;28;20029;-86
2024/01/15 10:19:06;;;;;;;127.70;52.03;;;;;;;-0.90;69.69;94130.00;5064201;28;20029;-85
2024/01/15 10:21:35;;;;;;;133.02;51.53;;;;;;;-1.51;69.74;94016.03;5061168;28;20043;-83
2024/01/15 10:24:02;;;;;;;123.75;50.35;;;;;;;-0.97;69.74;94128.53;5058808;28;20036;-83
2024/01/15 10:26:28;;;;;;;120.13;47.05;;;;;;;-0.14;69.76;94230.53;5068021;28;20064;-85
2024/01/15 10:28:53;;;;;;;126.53;48.85;;;;;;;-1.27;70.19;94040.22;5054557;28;20536;-86
2024/01/15 10:31:21;;;;;;;131.00;52.63;;;;;;;-0.66;70.74;94120.34;5049543;28;20037;-86
2024/01/15 10:33:52;;;;;;;142.07;52.72;;;;;;;0.17;70.78;94233.75;5064743;28;20552;-85
2024/01/15 10:36:27;;;;;;;131.65;51.92;;;;;;;0.25;70.52;94244.59;5057247;28;20033;-85
2024/01/15 10:38:57;;;;;;;105.30;46.15;;;;;;;0.32;70.33;94241.84;5066033;28;20043;-83
2024/01/15 10:41:23;;;;;;;125.93;46.58;;;;;;;0.29;70.04;94209.22;5068118;28;20029;-86
2024/01/15 10:43:49;;;;;;;135.93;50.33;;;;;;;-0.03;69.18;94161.19;5067346;28;20024;-86
2024/01/15 10:46:15;;;;;;;137.55;48.97;;;;;;;0.52;69.42;94234.41;5066022;28;20021;-85
2024/01/15 10:48:40;;;;;;;142.45;57.17;;;;;;;0.35;69.94;94216.13;5048209;28;20086;-84
2024/01/15 10:51:10;;;;;;;149.88;56.42;;;;;;;0.13;68.70;94152.63;5064476;28;20036;-84
2024/01/15 10:53:40;;;;;;;137.77;55.70;;;;;;;-0.75;68.31;93994.16;5066192;28;20134;-84
2024/01/15 10:56:06;;;;;;;138.05;51.83;;;;;;;0.29;68.52;94166.72;5066438;28;20039;-84
2024/01/15 10:58:34;;;;;;;126.68;52.90;;;;;;;0.39;68.60;94117.31;5064171;28;20044;-85
2024/01/15 11:00:59;;;;;;;107.22;46.15;;;;;;;-0.82;66.02;93924.00;5070563;28;20569;-86
2024/01/15 11:03:25;;;;;;;114.95;44.03;;;;;;;-0.06;66.21;94002.66;5070903;28;20036;-85
2024/01/15 11:05:50;;;;;;;101.93;42.25;;;;;;;1.27;65.90;94199.34;5065779;28;20136;-84